Time;durP1;ratioP1;P1;durP2;ratioP2;P2;SDS_P1;SDS_P2;PMS_P1;PMS_P2;Temp;Humidity;BMP_temperature;BMP_pressure;BME280_temperature;BME280_humidity;BME280_pressure;Samples;Min_cycle;Max_cycle;Signal;HPM_P1;HPM_P2
2023/04/15 00:01:23;;;;;;;;;;;17.30;57.70;;;;;;10246113;28;94422;-68
2023/04/15 00:06:26;;;;;;;;;;;17.30;57.70;;;;;;10247154;28;94572;-68
2023/04/15 00:11:28;;;;;;;;;;;17.30;57.60;;;;;;10244095;28;95926;-67
2023/04/15 00:16:30;;;;;;;;;;;17.30;57.60;;;;;;10245658;28;93608;-69
2023/04/15 00:21:32;;;;;;;;;;;17.30;57.60;;;;;;10245351;28;93668;-69
2023/04/15 00:26:34;;;;;;;;;;;17.30;57.50;;;;;;10246522;28;94429;-68
2023/04/15 00:31:36;;;;;;;;;;;17.30;57.50;;;;;;10245329;28;93529;-68
2023/04/15 00:36:38;;;;;;;;;;;17.30;57.50;;;;;;10245716;28;93685;-68
2023/04/15 00:41:39;;;;;;;;;;;17.30;57.50;;;;;;10245702;28;93411;-68
2023/04/15 00:46:42;;;;;;;;;;;17.20;57.40;;;;;;10249761;28;92324;-67
2023/04/15 00:51:43;;;;;;;;;;;17.20;57.40;;;;;;10252920;28;93298;-67
2023/04/15 00:56:45;;;;;;;;;;;17.20;57.30;;;;;;10251969;28;94141;-67
2023/04/15 01:01:47;;;;;;;;;;;17.20;57.20;;;;;;10249221;28;95486;-67
2023/04/15 01:06:49;;;;;;;;;;;17.20;57.30;;;;;;10251045;28;93377;-67
2023/04/15 01:11:51;;;;;;;;;;;17.20;57.20;;;;;;10251926;28;93569;-67
2023/04/15 01:16:52;;;;;;;;;;;17.20;57.20;;;;;;10251533;28;94228;-67
2023/04/15 01:21:55;;;;;;;;;;;17.20;57.20;;;;;;10233757;28;93864;-68
2023/04/15 01:26:57;;;;;;;;;;;17.10;57.10;;;;;;10234371;28;94871;-68
2023/04/15 01:31:59;;;;;;;;;;;17.20;57.10;;;;;;10233316;28;94121;-67
2023/04/15 01:37:00;;;;;;;;;;;17.20;57.10;;;;;;10251761;28;93915;-67
2023/04/15 01:42:02;;;;;;;;;;;17.10;57.00;;;;;;10250973;28;94496;-68
2023/04/15 01:47:05;;;;;;;;;;;17.10;57.00;;;;;;10251618;28;93296;-67
2023/04/15 01:52:07;;;;;;;;;;;17.10;57.00;;;;;;10248678;28;96940;-67
2023/04/15 01:57:09;;;;;;;;;;;17.10;56.90;;;;;;10233303;28;94616;-67
2023/04/15 02:02:11;;;;;;;;;;;17.10;56.90;;;;;;10249559;28;94241;-67
2023/04/15 02:07:13;;;;;;;;;;;17.10;56.80;;;;;;10249666;28;93525;-68
2023/04/15 02:12:14;;;;;;;;;;;17.10;56.80;;;;;;10249989;28;94431;-68
2023/04/15 02:17:16;;;;;;;;;;;17.10;56.80;;;;;;10250159;28;92999;-68
2023/04/15 02:22:18;;;;;;;;;;;17.10;56.80;;;;;;10249077;28;92884;-68
2023/04/15 02:27:21;;;;;;;;;;;17.10;56.80;;;;;;10232574;28;93082;-70
2023/04/15 02:32:23;;;;;;;;;;;17.00;56.70;;;;;;10248134;28;93418;-69
2023/04/15 02:37:27;;;;;;;;;;;17.00;56.70;;;;;;10250229;28;93565;-69
2023/04/15 02:42:30;;;;;;;;;;;17.00;56.70;;;;;;10228982;28;95927;-69
2023/04/15 02:47:33;;;;;;;;;;;17.00;56.70;;;;;;10248593;28;93987;-68
2023/04/15 02:52:34;;;;;;;;;;;17.00;56.70;;;;;;10249659;28;94467;-70
2023/04/15 02:57:37;;;;;;;;;;;17.00;56.70;;;;;;10248248;28;93703;-69
2023/04/15 03:02:40;;;;;;;;;;;16.90;56.60;;;;;;10247758;28;92799;-69
2023/04/15 03:07:43;;;;;;;;;;;16.90;56.60;;;;;;10230954;28;93445;-69
2023/04/15 03:12:44;;;;;;;;;;;16.90;56.60;;;;;;10248941;28;93296;-68
2023/04/15 03:17:48;;;;;;;;;;;16.90;56.60;;;;;;10248663;28;93154;-69
2023/04/15 03:22:50;;;;;;;;;;;16.90;56.70;;;;;;10231116;28;93495;-68
2023/04/15 03:27:52;;;;;;;;;;;16.90;56.70;;;;;;10248868;28;94753;-69
2023/04/15 03:32:53;;;;;;;;;;;16.90;56.60;;;;;;10245827;28;96960;-69
2023/04/15 03:37:55;;;;;;;;;;;16.90;56.60;;;;;;10249149;28;94010;-69
2023/04/15 03:42:57;;;;;;;;;;;16.90;57.60;;;;;;10230146;28;94486;-69
2023/04/15 05:05:58;;;;;;;;;;;16.90;56.50;;;;;;10199459;28;92845;-65
2023/04/15 05:11:00;;;;;;;;;;;16.90;56.50;;;;;;10210205;28;94543;-65
2023/04/15 05:16:01;;;;;;;;;;;17.00;56.40;;;;;;10210758;28;92980;-65
2023/04/15 05:21:03;;;;;;;;;;;17.00;56.30;;;;;;10192847;28;94428;-65
2023/04/15 05:26:05;;;;;;;;;;;17.00;56.40;;;;;;10192754;28;94567;-65
2023/04/15 05:31:07;;;;;;;;;;;17.00;56.40;;;;;;10207086;28;95869;-65
2023/04/15 05:36:09;;;;;;;;;;;17.00;56.50;;;;;;10192453;28;93351;-65
2023/04/15 05:41:11;;;;;;;;;;;17.00;56.70;;;;;;10209362;28;93432;-64
2023/04/15 05:46:12;;;;;;;;;;;17.00;56.90;;;;;;10209129;28;94371;-65
2023/04/15 05:51:14;;;;;;;;;;;17.00;57.10;;;;;;10200200;28;94570;-65
2023/04/15 05:56:16;;;;;;;;;;;17.00;57.20;;;;;;10207911;28;94612;-65
2023/04/15 06:01:18;;;;;;;;;;;17.00;57.20;;;;;;10208079;28;94654;-65
2023/04/15 06:06:20;;;;;;;;;;;17.00;57.40;;;;;;10207775;28;92445;-65
2023/04/15 06:11:22;;;;;;;;;;;17.00;57.40;;;;;;10208997;28;93327;-65
2023/04/15 06:16:24;;;;;;;;;;;17.00;57.50;;;;;;10208749;28;94003;-65
2023/04/15 06:21:25;;;;;;;;;;;17.00;57.60;;;;;;10205485;28;95822;-65
2023/04/15 06:26:27;;;;;;;;;;;17.00;57.70;;;;;;10208304;28;93617;-65
2023/04/15 06:31:29;;;;;;;;;;;17.00;57.80;;;;;;10191407;28;94488;-65
2023/04/15 06:36:31;;;;;;;;;;;17.00;57.80;;;;;;10208479;28;93512;-65
2023/04/15 06:41:33;;;;;;;;;;;17.00;58.00;;;;;;10208303;28;94066;-65
2023/04/15 06:46:35;;;;;;;;;;;17.00;58.00;;;;;;10208084;28;93462;-64
2023/04/15 06:51:36;;;;;;;;;;;17.00;58.10;;;;;;10209261;28;93863;-64
2023/04/15 06:56:38;;;;;;;;;;;17.10;58.10;;;;;;10208959;28;93716;-64
2023/04/15 07:01:40;;;;;;;;;;;17.20;58.00;;;;;;10222861;28;92701;-63
2023/04/15 07:06:43;;;;;;;;;;;17.40;57.90;;;;;;10205451;28;92644;-65
2023/04/15 07:11:45;;;;;;;;;;;17.40;57.70;;;;;;10205611;28;96761;-65
2023/04/15 07:16:46;;;;;;;;;;;17.50;57.80;;;;;;10207601;28;94369;-65
2023/04/15 07:21:48;;;;;;;;;;;17.60;57.90;;;;;;10208023;28;93674;-64
2023/04/15 07:26:50;;;;;;;;;;;17.80;59.20;;;;;;10207448;28;93364;-66
2023/04/15 07:31:51;;;;;;;;;;;17.90;59.40;;;;;;10206758;28;93354;-65
2023/04/15 07:36:53;;;;;;;;;;;17.90;59.60;;;;;;10206258;28;94259;-66
2023/04/15 07:41:55;;;;;;;;;;;18.00;59.90;;;;;;10189498;28;93189;-66
2023/04/15 07:46:57;;;;;;;;;;;18.00;60.10;;;;;;10191154;28;92704;-67
2023/04/15 07:51:59;;;;;;;;;;;17.90;60.00;;;;;;10206464;28;94435;-66
2023/04/15 07:57:02;;;;;;;;;;;17.90;60.00;;;;;;10204241;28;93466;-65
2023/04/15 08:02:03;;;;;;;;;;;17.90;60.10;;;;;;10203200;28;95966;-65
2023/04/15 08:07:05;;;;;;;;;;;17.80;60.10;;;;;;10205163;28;93269;-66
2023/04/15 08:12:11;;;;;;;;;;;17.80;59.90;;;;;;10206363;28;94461;-66
2023/04/15 08:17:12;;;;;;;;;;;17.80;59.90;;;;;;10207049;28;93294;-66
2023/04/15 08:22:14;;;;;;;;;;;17.80;59.80;;;;;;10205908;28;94442;-67
2023/04/15 08:27:20;;;;;;;;;;;17.70;59.70;;;;;;10205770;28;94852;-66
2023/04/15 08:32:22;;;;;;;;;;;17.70;59.50;;;;;;10206107;28;94102;-67
2023/04/15 08:37:25;;;;;;;;;;;17.60;59.40;;;;;;10206891;28;94689;-66
2023/04/15 08:42:31;;;;;;;;;;;17.60;59.30;;;;;;10205362;28;93597;-66
2023/04/15 08:47:33;;;;;;;;;;;17.60;59.30;;;;;;10205150;28;93675;-66
2023/04/15 08:52:35;;;;;;;;;;;17.60;59.20;;;;;;10202599;28;97241;-67
2023/04/15 08:57:38;;;;;;;;;;;17.60;59.20;;;;;;10204351;28;93560;-66
2023/04/15 09:02:40;;;;;;;;;;;17.50;59.10;;;;;;10204714;28;94593;-66
2023/04/15 09:07:42;;;;;;;;;;;17.50;59.10;;;;;;10190921;28;93552;-67
2023/04/15 09:12:43;;;;;;;;;;;17.50;59.00;;;;;;10212066;28;94713;-66
2023/04/15 09:17:46;;;;;;;;;;;17.50;59.10;;;;;;10212314;28;94255;-67
2023/04/15 09:22:49;;;;;;;;;;;17.50;58.90;;;;;;10211035;28;93537;-66
2023/04/15 09:27:52;;;;;;;;;;;17.60;58.90;;;;;;10211645;28;92771;-66
2023/04/15 09:32:57;;;;;;;;;;;17.60;58.80;;;;;;10211521;28;94148;-67
2023/04/15 09:38:01;;;;;;;;;;;17.60;58.80;;;;;;10210451;28;93666;-66
2023/04/15 09:43:04;;;;;;;;;;;17.70;58.60;;;;;;10208578;28;95931;-67
2023/04/15 09:48:21;;;;;;;;;;;17.70;58.50;;;;;;10210409;28;93644;-66
2023/04/15 09:53:24;;;;;;;;;;;17.70;58.50;;;;;;10210337;28;94495;-66
2023/04/15 09:58:27;;;;;;;;;;;17.70;58.50;;;;;;10225767;28;93422;-66
2023/04/15 10:03:30;;;;;;;;;;;17.70;58.30;;;;;;10208962;28;93554;-66
2023/04/15 10:08:33;;;;;;;;;;;17.70;58.20;;;;;;10210195;28;93806;-66
2023/04/15 10:13:36;;;;;;;;;;;17.70;58.10;;;;;;10210306;28;94587;-65
2023/04/15 10:18:40;;;;;;;;;;;17.80;58.20;;;;;;10208959;28;93139;-65
2023/04/15 10:23:41;;;;;;;;;;;17.80;58.20;;;;;;10209589;28;93301;-66
2023/04/15 10:28:43;;;;;;;;;;;17.80;58.10;;;;;;10209271;28;94238;-66
2023/04/15 10:33:46;;;;;;;;;;;17.90;58.20;;;;;;10207075;28;95743;-67
2023/04/15 10:38:48;;;;;;;;;;;17.90;58.10;;;;;;10209153;28;94674;-66
2023/04/15 10:43:53;;;;;;;;;;;17.90;58.10;;;;;;10207932;28;93453;-67
2023/04/15 10:48:56;;;;;;;;;;;17.90;58.00;;;;;;10191621;28;94405;-66
2023/04/15 10:53:58;;;;;;;;;;;17.90;58.00;;;;;;10209613;28;94426;-68
2023/04/15 10:59:00;;;;;;;;;;;17.90;58.00;;;;;;10207870;28;92780;-65
2023/04/15 11:04:02;;;;;;;;;;;17.90;58.10;;;;;;10206600;28;94449;-67
2023/04/15 11:09:08;;;;;;;;;;;17.90;58.30;;;;;;10208985;28;93827;-66
2023/04/15 11:14:14;;;;;;;;;;;18.00;61.50;;;;;;10208762;28;94932;-66
2023/04/15 11:19:16;;;;;;;;;;;18.10;59.90;;;;;;10207671;28;93466;-66
2023/04/15 11:24:27;;;;;;;;;;;18.20;59.30;;;;;;10205285;28;97016;-66
2023/04/15 11:29:30;;;;;;;;;;;18.20;59.10;;;;;;10207594;28;93878;-65
2023/04/15 11:34:32;;;;;;;;;;;18.30;59.70;;;;;;10207245;28;94426;-66
2023/04/15 11:39:36;;;;;;;;;;;18.30;59.70;;;;;;10208235;28;94983;-66
2023/04/15 11:44:38;;;;;;;;;;;18.30;59.50;;;;;;10206574;28;93584;-66
2023/04/15 11:49:40;;;;;;;;;;;18.30;59.50;;;;;;10207093;28;94670;-67
2023/04/15 11:54:42;;;;;;;;;;;18.30;59.70;;;;;;10206602;28;93544;-69
2023/04/15 11:59:44;;;;;;;;;;;18.30;62.20;;;;;;10206454;28;92475;-67
2023/04/15 12:04:46;;;;;;;;;;;18.40;61.80;;;;;;10206364;28;93433;-66
2023/04/15 12:09:53;;;;;;;;;;;18.40;62.90;;;;;;10204716;28;93533;-66
2023/04/15 12:14:55;;;;;;;;;;;18.30;61.10;;;;;;10202040;28;96259;-66
2023/04/15 12:19:57;;;;;;;;;;;18.20;60.60;;;;;;10206496;28;94469;-66
2023/04/15 12:25:01;;;;;;;;;;;18.20;60.40;;;;;;10205520;28;93647;-67
2023/04/15 12:30:04;;;;;;;;;;;18.10;60.40;;;;;;10207077;28;96753;-65
2023/04/15 12:35:06;;;;;;;;;;;18.10;60.30;;;;;;10205530;28;93529;-66
2023/04/15 12:40:08;;;;;;;;;;;18.00;60.10;;;;;;10188835;28;93546;-65
2023/04/15 12:45:09;;;;;;;;;;;18.00;60.10;;;;;;10194735;28;93279;-66
2023/04/15 12:50:11;;;;;;;;;;;18.00;60.10;;;;;;10212842;28;92115;-66
2023/04/15 12:55:13;;;;;;;;;;;17.90;60.10;;;;;;10212284;28;94292;-66
2023/04/15 13:00:15;;;;;;;;;;;17.90;60.20;;;;;;10194009;28;93371;-66
2023/04/15 13:05:16;;;;;;;;;;;17.90;60.10;;;;;;10209229;28;98786;-66
2023/04/15 13:10:18;;;;;;;;;;;17.80;60.00;;;;;;10211338;28;92976;-66
2023/04/15 13:15:21;;;;;;;;;;;17.80;60.10;;;;;;10212100;28;93472;-66
2023/04/15 13:20:24;;;;;;;;;;;17.80;60.20;;;;;;10212314;28;94389;-66
2023/04/15 13:25:26;;;;;;;;;;;17.70;60.00;;;;;;10226386;28;93672;-66
2023/04/15 13:30:28;;;;;;;;;;;17.70;60.10;;;;;;10211442;28;94422;-66
2023/04/15 13:35:30;;;;;;;;;;;17.70;59.90;;;;;;10211413;28;94507;-66
2023/04/15 13:40:32;;;;;;;;;;;17.70;59.90;;;;;;10211124;28;92408;-66
2023/04/15 13:45:34;;;;;;;;;;;17.70;59.90;;;;;;10210920;28;93528;-66
2023/04/15 13:50:36;;;;;;;;;;;17.70;59.90;;;;;;10210084;28;94490;-66
2023/04/15 13:55:40;;;;;;;;;;;17.70;59.80;;;;;;10208026;28;97214;-66
2023/04/15 14:00:42;;;;;;;;;;;17.70;59.70;;;;;;10209756;28;93065;-66
2023/04/15 14:05:44;;;;;;;;;;;17.70;59.60;;;;;;10209508;28;93053;-66
2023/04/15 14:10:47;;;;;;;;;;;17.70;59.50;;;;;;10193445;28;94286;-66
2023/04/15 14:15:48;;;;;;;;;;;17.70;59.50;;;;;;10209639;28;93275;-66
2023/04/15 14:20:50;;;;;;;;;;;17.70;59.40;;;;;;10208123;28;93419;-65
2023/04/15 14:25:52;;;;;;;;;;;17.70;59.30;;;;;;10191654;28;94545;-66
2023/04/15 14:30:54;;;;;;;;;;;17.70;59.30;;;;;;10193679;28;92655;-66
2023/04/15 14:35:56;;;;;;;;;;;17.70;59.20;;;;;;10208516;28;92841;-65
2023/04/15 14:40:57;;;;;;;;;;;17.70;60.50;;;;;;10209378;28;94060;-66
2023/04/15 14:45:59;;;;;;;;;;;17.80;60.80;;;;;;10207176;28;95964;-66
2023/04/15 14:51:01;;;;;;;;;;;17.80;60.60;;;;;;10208670;28;93456;-66
2023/04/15 14:56:03;;;;;;;;;;;17.80;60.50;;;;;;10191170;28;93520;-66
2023/04/15 15:01:05;;;;;;;;;;;17.80;60.00;;;;;;10209058;28;93175;-66
2023/04/15 15:06:07;;;;;;;;;;;17.80;59.90;;;;;;10206947;28;93505;-66
2023/04/15 15:11:09;;;;;;;;;;;17.80;59.90;;;;;;10209336;28;94646;-66
2023/04/15 15:16:11;;;;;;;;;;;17.80;59.90;;;;;;10208332;28;94342;-66
2023/04/15 15:21:15;;;;;;;;;;;17.90;59.80;;;;;;10208279;28;92761;-66
2023/04/15 15:26:18;;;;;;;;;;;17.90;59.60;;;;;;10207091;28;93491;-66
2023/04/15 15:31:19;;;;;;;;;;;17.90;59.40;;;;;;10190985;28;94826;-65
2023/04/15 15:36:21;;;;;;;;;;;17.90;59.60;;;;;;10188244;28;97406;-63
2023/04/15 15:41:24;;;;;;;;;;;17.90;61.60;;;;;;10207310;28;93463;-65
2023/04/15 15:46:27;;;;;;;;;;;18.10;61.00;;;;;;10206848;28;93394;-65
2023/04/15 15:51:29;;;;;;;;;;;18.10;60.40;;;;;;10206567;28;93619;-65
2023/04/15 15:56:30;;;;;;;;;;;18.10;60.30;;;;;;10206404;28;92667;-65
2023/04/15 16:01:32;;;;;;;;;;;18.10;60.40;;;;;;10206166;28;93569;-65
2023/04/15 16:06:34;;;;;;;;;;;18.10;60.50;;;;;;10206292;28;93479;-65
2023/04/15 16:11:36;;;;;;;;;;;18.10;60.30;;;;;;10206675;28;93853;-64
2023/04/15 16:16:37;;;;;;;;;;;18.10;60.40;;;;;;10209539;28;93901;-64
2023/04/15 16:21:39;;;;;;;;;;;18.10;60.40;;;;;;10213206;28;94441;-65
2023/04/15 16:26:41;;;;;;;;;;;18.10;60.30;;;;;;10211267;28;95954;-65
2023/04/15 16:31:42;;;;;;;;;;;18.10;60.20;;;;;;10213528;28;94468;-63
2023/04/15 16:36:44;;;;;;;;;;;18.20;60.80;;;;;;10212969;28;93685;-66
2023/04/15 16:41:46;;;;;;;;;;;18.30;63.20;;;;;;10213500;28;93537;-64
2023/04/15 16:46:48;;;;;;;;;;;18.30;62.70;;;;;;10211778;28;93359;-66
2023/04/15 16:51:49;;;;;;;;;;;18.50;67.00;;;;;;10212297;28;93486;-65
2023/04/15 16:56:53;;;;;;;;;;;18.50;62.90;;;;;;10212461;28;94124;-65
2023/04/15 17:01:55;;;;;;;;;;;18.50;62.70;;;;;;10227456;28;93964;-64
2023/04/15 17:06:57;;;;;;;;;;;18.50;62.60;;;;;;10211403;28;93530;-64
2023/04/15 17:11:59;;;;;;;;;;;18.40;62.40;;;;;;10211783;28;93648;-65
2023/04/15 17:17:01;;;;;;;;;;;18.40;62.30;;;;;;10191612;28;95410;-65
2023/04/15 17:22:03;;;;;;;;;;;18.40;62.30;;;;;;10210657;28;93475;-65
2023/04/15 17:27:05;;;;;;;;;;;18.30;62.20;;;;;;10225354;28;93641;-66
2023/04/15 17:32:07;;;;;;;;;;;18.30;62.00;;;;;;10211947;28;94946;-63
2023/04/15 17:37:09;;;;;;;;;;;18.30;62.50;;;;;;10209762;28;93398;-65
2023/04/15 17:42:10;;;;;;;;;;;18.30;62.50;;;;;;10210355;28;94434;-65
2023/04/15 17:47:12;;;;;;;;;;;18.20;62.30;;;;;;10209873;28;94451;-65
2023/04/15 17:52:13;;;;;;;;;;;18.20;62.20;;;;;;10211686;28;93971;-65
2023/04/15 17:57:15;;;;;;;;;;;18.10;62.20;;;;;;10210202;28;94501;-65
2023/04/15 18:02:17;;;;;;;;;;;18.10;62.10;;;;;;10210460;28;94865;-64
2023/04/15 18:07:19;;;;;;;;;;;18.20;62.00;;;;;;10206922;28;96900;-64
2023/04/15 18:12:20;;;;;;;;;;;18.30;61.70;;;;;;10209647;28;92911;-64
2023/04/15 18:17:22;;;;;;;;;;;18.40;61.30;;;;;;10192196;28;93278;-65
2023/04/15 18:22:24;;;;;;;;;;;18.50;61.10;;;;;;10224134;28;93448;-65
2023/04/15 18:27:26;;;;;;;;;;;18.50;62.30;;;;;;10191102;28;94810;-64
2023/04/15 18:32:29;;;;;;;;;;;18.60;62.00;;;;;;10191694;28;93231;-65
2023/04/15 18:37:32;;;;;;;;;;;18.50;61.40;;;;;;10207721;28;94403;-65
2023/04/15 18:42:34;;;;;;;;;;;18.50;61.30;;;;;;10209053;28;93652;-64
2023/04/15 18:47:35;;;;;;;;;;;18.50;61.50;;;;;;10190316;28;93472;-64
2023/04/15 18:52:37;;;;;;;;;;;18.40;61.40;;;;;;10207200;28;93654;-64
2023/04/15 18:57:41;;;;;;;;;;;18.40;61.50;;;;;;10187931;28;95646;-65
2023/04/15 19:02:44;;;;;;;;;;;18.30;61.60;;;;;;10207717;28;94276;-65
2023/04/15 19:07:46;;;;;;;;;;;18.30;61.80;;;;;;10208098;28;93396;-64
2023/04/15 19:12:48;;;;;;;;;;;18.40;61.80;;;;;;10207549;28;93219;-64
2023/04/15 19:17:49;;;;;;;;;;;18.30;61.70;;;;;;10206899;28;93449;-64
2023/04/15 19:22:53;;;;;;;;;;;18.30;61.90;;;;;;10207011;28;94164;-65
2023/04/15 19:27:55;;;;;;;;;;;18.30;62.10;;;;;;10190231;28;94541;-65
2023/04/15 19:32:59;;;;;;;;;;;18.30;62.10;;;;;;10207433;28;93673;-65
2023/04/15 19:38:03;;;;;;;;;;;18.30;62.10;;;;;;10206126;28;113269;-65
2023/04/15 19:43:05;;;;;;;;;;;18.30;62.10;;;;;;10206025;28;92730;-65
2023/04/15 19:48:06;;;;;;;;;;;18.20;62.00;;;;;;10203937;28;95753;-65
2023/04/15 19:53:08;;;;;;;;;;;18.20;62.10;;;;;;10205731;28;94394;-65
2023/04/15 19:58:10;;;;;;;;;;;18.20;62.10;;;;;;10189369;28;94707;-65
2023/04/15 20:03:12;;;;;;;;;;;18.20;62.10;;;;;;10206432;28;93487;-65
2023/04/15 20:08:14;;;;;;;;;;;18.20;62.10;;;;;;10205796;28;94473;-65
2023/04/15 20:13:15;;;;;;;;;;;18.20;62.20;;;;;;10204988;28;93891;-66
2023/04/15 20:18:17;;;;;;;;;;;18.20;62.10;;;;;;10205508;28;93464;-65
2023/04/15 20:23:19;;;;;;;;;;;18.10;62.10;;;;;;10206293;28;92680;-65
2023/04/15 20:28:22;;;;;;;;;;;18.10;62.10;;;;;;10204698;28;93277;-65
2023/04/15 20:33:26;;;;;;;;;;;18.20;62.10;;;;;;10220571;28;93291;-64
2023/04/15 20:38:27;;;;;;;;;;;18.10;63.10;;;;;;10200891;28;95106;-65
2023/04/15 20:43:29;;;;;;;;;;;18.10;61.90;;;;;;10205146;28;94584;-65
2023/04/15 20:48:31;;;;;;;;;;;18.10;61.80;;;;;;10205312;28;94625;-65
2023/04/15 20:53:32;;;;;;;;;;;18.10;61.60;;;;;;10205591;28;94087;-64
2023/04/15 20:58:34;;;;;;;;;;;18.00;61.50;;;;;;10187147;28;93505;-65
2023/04/15 21:03:36;;;;;;;;;;;18.00;61.50;;;;;;10208650;28;93370;-65
2023/04/15 21:08:38;;;;;;;;;;;18.00;61.30;;;;;;10211275;28;94431;-65
2023/04/15 21:13:39;;;;;;;;;;;18.00;61.20;;;;;;10212505;28;93826;-65
2023/04/15 21:18:41;;;;;;;;;;;17.90;61.20;;;;;;10211247;28;94596;-65
2023/04/15 21:23:42;;;;;;;;;;;17.90;61.20;;;;;;10211305;28;94910;-65
2023/04/15 21:28:44;;;;;;;;;;;17.80;61.10;;;;;;10207862;28;96820;-65
2023/04/15 21:33:46;;;;;;;;;;;17.80;61.10;;;;;;10210629;28;93229;-64
2023/04/15 21:38:47;;;;;;;;;;;17.80;61.00;;;;;;10211139;28;94405;-64
2023/04/15 21:43:49;;;;;;;;;;;17.80;61.00;;;;;;10210428;28;94166;-63
2023/04/15 21:48:51;;;;;;;;;;;17.70;61.00;;;;;;10209629;28;93437;-64
2023/04/15 21:53:54;;;;;;;;;;;17.70;60.90;;;;;;10211109;28;93546;-64
2023/04/15 21:58:56;;;;;;;;;;;17.70;60.90;;;;;;10210865;28;94491;-63
2023/04/15 22:03:58;;;;;;;;;;;17.60;60.80;;;;;;10211302;28;94447;-64
2023/04/15 22:09:00;;;;;;;;;;;17.60;60.90;;;;;;10210578;28;94429;-63
2023/04/15 22:14:02;;;;;;;;;;;17.60;60.80;;;;;;10191245;28;93484;-64
2023/04/15 22:19:03;;;;;;;;;;;17.50;60.80;;;;;;10207911;28;96913;-64
2023/04/15 22:24:06;;;;;;;;;;;17.50;60.80;;;;;;10209766;28;94425;-64
2023/04/15 22:29:27;;;;;;;;;;;17.50;60.80;;;;;;10194744;28;95126;-64
2023/04/15 22:34:29;;;;;;;;;;;17.50;60.80;;;;;;10209675;28;94467;-63
2023/04/15 22:39:31;;;;;;;;;;;17.50;60.80;;;;;;10209248;28;92920;-65
2023/04/15 22:44:32;;;;;;;;;;;17.50;60.80;;;;;;10192145;28;92519;-64
2023/04/15 22:49:35;;;;;;;;;;;17.40;60.80;;;;;;10208785;28;93646;-65
2023/04/15 22:54:36;;;;;;;;;;;17.40;60.80;;;;;;10210448;28;93972;-64
2023/04/15 22:59:38;;;;;;;;;;;17.40;60.80;;;;;;10209029;28;94441;-65
2023/04/15 23:04:40;;;;;;;;;;;17.40;60.80;;;;;;10207978;28;94272;-64
2023/04/15 23:09:42;;;;;;;;;;;17.40;60.80;;;;;;10206521;28;95887;-65
2023/04/15 23:14:43;;;;;;;;;;;17.30;60.70;;;;;;10191253;28;93768;-65
2023/04/15 23:19:45;;;;;;;;;;;17.30;60.80;;;;;;10190763;28;93600;-65
2023/04/15 23:24:47;;;;;;;;;;;17.30;60.70;;;;;;10206902;28;94081;-65
2023/04/15 23:29:48;;;;;;;;;;;17.30;60.80;;;;;;10208334;28;93035;-65
2023/04/15 23:34:51;;;;;;;;;;;17.30;60.80;;;;;;10190552;28;94619;-66
2023/04/15 23:39:54;;;;;;;;;;;17.30;60.80;;;;;;10207833;28;95279;-65
2023/04/15 23:44:56;;;;;;;;;;;17.30;60.80;;;;;;10207859;28;92646;-65
2023/04/15 23:49:57;;;;;;;;;;;17.20;60.70;;;;;;10207145;28;92812;-66
2023/04/15 23:54:59;;;;;;;;;;;17.20;60.70;;;;;;10207745;28;93559;-66
